Photometre #398[Standard_N] Lille AOT

File : 20200924_398.hum

24/09/2020,06:34:21,TEMP=11.4,BA=5.64,STAT.A=3.5,ExtBa=13.09
24/09/2020,06:38:26,TEMP=11.7,BA=5.64,STAT.A=3.5,ExtBa=13.00
24/09/2020,06:43:14,TEMP=11.9,BA=5.64,STAT.A=3.5,ExtBa=12.92
24/09/2020,06:48:57,TEMP=12.2,BA=5.64,STAT.A=3.5,ExtBa=12.93
24/09/2020,06:55:53,TEMP=12.5,BA=5.60,STAT.A=3.5,ExtBa=12.97
24/09/2020,07:04:25,TEMP=12.8,BA=5.64,STAT.A=3.5,ExtBa=13.07
24/09/2020,07:15:18,TEMP=13.2,BA=5.64,STAT.B=3.5,ExtBa=13.13
24/09/2020,07:21:58,TEMP=13.8,BA=5.64,STAT.A=3.5,ExtBa=12.63
24/09/2020,07:26:23,TEMP=13.7,BA=5.64,STAT.A=3.5,ExtBa=12.83
24/09/2020,07:33:02,TEMP=13.6,BA=5.64,STAT.A=3.5,ExtBa=12.97
24/09/2020,07:40:39,TEMP=14.0,BA=5.64,STAT.A=3.5,ExtBa=13.09
24/09/2020,07:49:27,TEMP=14.3,BA=5.64,STAT.C=3.5,ExtBa=13.19
24/09/2020,07:59:51,TEMP=14.9,BA=5.64,STAT.A=3.5,ExtBa=12.62
24/09/2020,08:12:09,TEMP=15.1,BA=5.64,STAT.A=3.5,ExtBa=13.14
24/09/2020,08:27:15,TEMP=15.5,BA=5.64,STAT.A=3.5,ExtBa=13.35
24/09/2020,08:39:49,TEMP=16.1,BA=5.64,STAT.F,ExtBa=13.34
24/09/2020,08:54:48,TEMP=15.8,BA=5.60,STAT.D=3.5,ExtBa=12.83
24/09/2020,09:09:48,TEMP=16.3,BA=5.64,STAT.D=3.5,ExtBa=13.23
24/09/2020,09:24:48,TEMP=16.9,BA=5.64,STAT.D=3.5,ExtBa=13.38
24/09/2020,09:39:49,TEMP=17.0,BA=5.64,STAT.F,ExtBa=13.35